createdAt,value
2023-05-04T00:02:17.921Z,13.33
2023-05-04T00:04:44.599Z,13.48
2023-05-04T00:07:11.707Z,13.67
2023-05-04T00:09:38.554Z,13.80
2023-05-04T00:12:05.741Z,13.94
2023-05-04T00:14:32.335Z,14.09
2023-05-04T00:16:59.130Z,13.79
2023-05-04T00:19:25.959Z,13.82
2023-05-04T00:21:52.523Z,13.55
2023-05-04T00:24:19.171Z,13.55
2023-05-04T00:26:45.855Z,13.64
2023-05-04T00:29:12.473Z,13.83
2023-05-04T00:31:39.257Z,13.97
2023-05-04T00:34:05.891Z,13.60
2023-05-04T00:36:33.757Z,13.93
2023-05-04T00:39:00.441Z,14.09
2023-05-04T00:41:27.130Z,13.67
2023-05-04T00:43:53.740Z,14.14
2023-05-04T00:46:20.608Z,13.61
2023-05-04T00:48:50.027Z,12.58
2023-05-04T00:51:19.329Z,13.25
2023-05-04T00:53:46.072Z,13.32
2023-05-04T00:56:13.038Z,12.61
2023-05-04T00:58:39.700Z,12.49
2023-05-04T01:01:06.415Z,12.45
2023-05-04T01:03:33.824Z,12.28
2023-05-04T01:06:06.669Z,12.71
2023-05-04T01:08:41.008Z,12.56
2023-05-04T01:11:11.309Z,12.53
2023-05-04T01:13:40.141Z,12.89
2023-05-04T01:16:07.073Z,13.22
2023-05-04T01:18:33.694Z,13.40
2023-05-04T01:21:00.430Z,13.06
2023-05-04T01:23:27.557Z,13.34
2023-05-04T01:26:18.908Z,13.07
2023-05-04T01:28:53.247Z,13.10
2023-05-04T01:31:22.954Z,12.97
2023-05-04T01:33:53.078Z,13.10
2023-05-04T01:36:21.599Z,13.20
2023-05-04T01:38:55.537Z,12.82
2023-05-04T01:41:22.169Z,13.47
2023-05-04T01:43:48.921Z,13.53
2023-05-04T01:46:15.728Z,13.16
2023-05-04T01:48:42.336Z,13.30
2023-05-04T01:51:09.024Z,12.87
2023-05-04T01:53:36.236Z,12.80
2023-05-04T01:56:03.252Z,12.88
2023-05-04T01:58:30.003Z,13.53
2023-05-04T02:00:59.281Z,13.78
2023-05-04T02:03:26.527Z,13.25
2023-05-04T02:05:53.318Z,13.52
2023-05-04T02:08:19.965Z,13.73
2023-05-04T02:10:46.706Z,13.46
2023-05-04T02:13:13.405Z,13.50
2023-05-04T02:15:40.546Z,13.29
2023-05-04T02:18:07.343Z,12.61
2023-05-04T02:20:34.119Z,12.62
2023-05-04T02:23:00.815Z,12.40
2023-05-04T02:25:27.527Z,12.10
2023-05-04T02:27:54.248Z,12.46
2023-05-04T02:30:21.023Z,12.08
2023-05-04T02:32:47.784Z,12.31
2023-05-04T02:35:14.436Z,12.95
2023-05-04T02:37:41.837Z,12.17
2023-05-04T02:40:09.071Z,12.24
2023-05-04T02:42:35.704Z,13.14
2023-05-04T02:45:02.332Z,12.91
2023-05-04T02:47:29.111Z,12.67
2023-05-04T02:49:55.824Z,12.75
2023-05-04T02:52:22.432Z,13.05
2023-05-04T02:54:50.131Z,13.40
2023-05-04T02:57:18.382Z,13.22
2023-05-04T02:59:45.001Z,12.94
2023-05-04T03:02:11.787Z,13.11
2023-05-04T03:04:38.517Z,12.95
2023-05-04T03:07:05.205Z,12.13
2023-05-04T03:09:31.880Z,11.97
2023-05-04T03:11:58.498Z,12.49
2023-05-04T03:14:25.160Z,11.85
2023-05-04T03:16:51.990Z,11.79
2023-05-04T03:19:19.168Z,11.36
2023-05-04T03:21:46.464Z,11.92
2023-05-04T03:24:13.211Z,12.64
2023-05-04T03:26:39.855Z,12.76
2023-05-04T03:29:06.636Z,12.93
2023-05-04T03:31:33.344Z,13.21
2023-05-04T03:34:00.069Z,12.96
2023-05-04T03:36:26.732Z,12.54
2023-05-04T03:38:53.434Z,12.78
2023-05-04T03:41:21.226Z,12.73
2023-05-04T03:43:47.819Z,12.79
2023-05-04T03:46:14.550Z,11.82
2023-05-04T03:48:42.368Z,12.26
2023-05-04T03:51:09.032Z,12.57
2023-05-04T03:53:35.888Z,12.94
2023-05-04T03:56:03.519Z,13.19
2023-05-04T03:58:30.316Z,12.39
2023-05-04T04:00:57.044Z,11.76
2023-05-04T04:03:23.874Z,11.95
2023-05-04T04:05:50.866Z,12.31
2023-05-04T04:08:17.484Z,12.76
2023-05-04T04:10:44.161Z,12.99
2023-05-04T04:13:10.990Z,12.67
2023-05-04T04:15:37.679Z,12.84
2023-05-04T04:18:04.434Z,11.51
2023-05-04T04:20:31.195Z,12.26
2023-05-04T04:22:57.818Z,12.76
2023-05-04T04:25:24.536Z,11.46
2023-05-04T04:27:51.644Z,11.65
2023-05-04T04:30:18.337Z,12.06
2023-05-04T04:32:45.835Z,12.75
2023-05-04T04:35:14.144Z,13.06
2023-05-04T04:37:40.933Z,13.15
2023-05-04T04:40:08.102Z,12.83
2023-05-04T04:42:34.894Z,12.87
2023-05-04T04:45:05.092Z,13.20
2023-05-04T04:47:33.066Z,13.04
2023-05-04T04:49:59.969Z,13.21
2023-05-04T04:52:26.651Z,12.46
2023-05-04T04:54:53.233Z,12.61
2023-05-04T04:57:19.927Z,11.78
2023-05-04T04:59:46.551Z,12.37
2023-05-04T05:02:13.146Z,12.91
2023-05-04T05:04:41.477Z,12.80
2023-05-04T05:07:10.962Z,12.99
2023-05-04T05:09:38.476Z,12.85
2023-05-04T05:12:05.558Z,12.09
2023-05-04T05:14:32.213Z,11.55
2023-05-04T05:16:59.625Z,12.38
2023-05-04T05:19:26.302Z,13.11
2023-05-04T05:21:53.016Z,13.48
2023-05-04T05:24:19.680Z,13.52
2023-05-04T05:26:46.309Z,13.40
2023-05-04T05:29:12.962Z,13.70
2023-05-04T05:31:39.600Z,12.88
2023-05-04T05:34:06.240Z,12.94
2023-05-04T05:36:32.847Z,12.95
2023-05-04T05:38:59.474Z,13.37
2023-05-04T05:41:26.122Z,12.97
2023-05-04T05:43:52.735Z,13.15
2023-05-04T05:46:19.369Z,12.84
2023-05-04T05:48:46.056Z,11.98
2023-05-04T05:51:12.647Z,12.82
2023-05-04T05:53:39.339Z,12.01
2023-05-04T05:56:06.128Z,12.93
2023-05-04T05:58:32.734Z,13.32
2023-05-04T06:00:59.343Z,13.12
2023-05-04T06:03:26.539Z,12.45
2023-05-04T06:05:53.288Z,12.90
2023-05-04T06:08:19.948Z,13.62
2023-05-04T06:10:46.588Z,13.86
2023-05-04T06:13:13.258Z,12.54
2023-05-04T06:15:39.924Z,12.55
2023-05-04T06:18:06.630Z,13.04
2023-05-04T06:20:33.412Z,13.36
2023-05-04T06:23:00.066Z,12.81
2023-05-04T06:25:26.697Z,12.41
2023-05-04T06:27:53.414Z,11.81
2023-05-04T06:30:24.261Z,12.73
2023-05-04T06:32:51.472Z,13.05
2023-05-04T06:35:19.095Z,13.30
2023-05-04T06:37:45.957Z,13.82
2023-05-04T06:40:13.409Z,14.10
2023-05-04T06:42:40.444Z,13.87
2023-05-04T06:45:07.501Z,14.07
2023-05-04T06:47:37.875Z,12.81
2023-05-04T06:50:11.927Z,12.49
2023-05-04T06:52:39.928Z,12.24
2023-05-04T06:55:07.743Z,13.11
2023-05-04T06:57:34.567Z,12.61
2023-05-04T07:00:03.315Z,12.60
2023-05-04T07:02:30.408Z,13.04
2023-05-04T07:04:57.692Z,13.23
2023-05-04T07:07:24.400Z,13.67
2023-05-04T07:09:51.002Z,13.72
2023-05-04T07:12:18.614Z,13.67
2023-05-04T07:14:45.309Z,13.44
2023-05-04T07:17:11.921Z,13.09
2023-05-04T07:19:38.615Z,12.82
2023-05-04T07:22:05.270Z,12.89
2023-05-04T07:24:32.105Z,13.05
2023-05-04T07:26:58.729Z,13.00
2023-05-04T07:29:26.510Z,12.73
2023-05-04T07:31:53.161Z,12.33
2023-05-04T07:34:20.216Z,12.76
2023-05-04T07:36:48.000Z,13.27
2023-05-04T07:39:16.610Z,13.12
2023-05-04T07:41:43.187Z,12.69
2023-05-04T07:44:11.291Z,12.20
2023-05-04T07:46:38.881Z,12.35
2023-05-04T07:49:06.020Z,12.84
2023-05-04T07:51:32.643Z,12.12
2023-05-04T07:53:59.224Z,11.91
2023-05-04T07:56:25.891Z,12.74
2023-05-04T07:58:52.450Z,13.37
2023-05-04T08:01:19.134Z,12.90
2023-05-04T08:03:46.106Z,12.93
2023-05-04T08:06:13.263Z,12.33
2023-05-04T08:08:39.973Z,12.98
2023-05-04T08:11:19.199Z,13.01
2023-05-04T08:13:50.649Z,13.27
2023-05-04T08:16:17.463Z,12.34
2023-05-04T08:18:44.124Z,12.46
2023-05-04T08:21:10.840Z,11.21
2023-05-04T08:23:37.454Z,11.53
2023-05-04T08:26:04.866Z,12.53
2023-05-04T08:28:35.669Z,12.96
2023-05-04T08:31:03.163Z,12.52
2023-05-04T08:33:30.347Z,12.05
2023-05-04T08:35:56.984Z,12.64
2023-05-04T08:38:23.693Z,12.93
2023-05-04T08:40:50.735Z,13.10
2023-05-04T08:43:17.441Z,13.18
2023-05-04T08:45:45.374Z,13.17
2023-05-04T08:48:12.002Z,13.89
2023-05-04T08:50:38.788Z,13.88
2023-05-04T08:53:13.845Z,13.67
2023-05-04T08:55:43.855Z,13.37
2023-05-04T08:58:12.879Z,12.09
2023-05-04T09:00:41.379Z,12.49
2023-05-04T09:03:10.576Z,13.04
2023-05-04T09:05:38.420Z,13.78
2023-05-04T09:08:05.791Z,14.24
2023-05-04T09:10:33.513Z,14.43
2023-05-04T09:13:00.612Z,14.15
2023-05-04T09:15:27.476Z,14.64
2023-05-04T09:18:05.571Z,13.41
2023-05-04T09:20:44.737Z,13.76
2023-05-04T09:23:12.026Z,13.29
2023-05-04T09:25:55.787Z,13.26
2023-05-04T09:28:36.384Z,13.96
2023-05-04T09:31:04.222Z,13.75
2023-05-04T09:33:32.077Z,13.95
2023-05-04T09:36:17.154Z,14.46
2023-05-04T09:38:44.353Z,14.17
2023-05-04T09:41:11.787Z,13.59
2023-05-04T09:43:43.917Z,14.17
2023-05-04T09:46:18.393Z,14.56
2023-05-04T09:48:53.115Z,14.65
2023-05-04T09:51:22.550Z,14.43
2023-05-04T09:53:50.511Z,14.06
2023-05-04T09:56:38.871Z,13.92
2023-05-04T09:59:05.973Z,13.89
2023-05-04T10:01:33.091Z,14.06
2023-05-04T10:04:00.068Z,13.85
2023-05-04T10:06:30.160Z,13.97
2023-05-04T10:08:59.254Z,14.28
2023-05-04T10:11:26.745Z,13.83
2023-05-04T10:13:57.174Z,13.22
2023-05-04T10:16:37.430Z,13.54
2023-05-04T10:19:39.652Z,14.15
2023-05-04T10:22:18.539Z,13.08
2023-05-04T10:25:24.863Z,13.74
2023-05-04T10:28:03.647Z,13.89
2023-05-04T10:30:30.608Z,13.85
2023-05-04T10:32:58.867Z,13.96
2023-05-04T10:35:25.977Z,14.32
2023-05-04T10:37:56.670Z,14.40
2023-05-04T10:40:40.033Z,14.68
2023-05-04T10:43:08.320Z,15.43
2023-05-04T10:45:39.772Z,14.94
2023-05-04T10:48:08.050Z,15.08
2023-05-04T10:50:45.849Z,14.19
2023-05-04T10:53:14.513Z,15.22
2023-05-04T10:55:46.166Z,15.47
2023-05-04T10:58:16.642Z,15.99
2023-05-04T11:00:45.882Z,15.76
2023-05-04T11:03:14.242Z,14.69
2023-05-04T11:05:43.268Z,15.44
2023-05-04T11:08:22.775Z,15.50
2023-05-04T11:11:01.951Z,15.49
2023-05-04T11:13:34.390Z,15.04
2023-05-04T11:16:01.783Z,14.78
2023-05-04T11:18:28.691Z,15.31
2023-05-04T11:20:58.408Z,14.21
2023-05-04T11:23:25.381Z,13.98
2023-05-04T11:25:52.550Z,14.96
2023-05-04T11:28:19.243Z,14.78
2023-05-04T11:30:47.714Z,14.65
2023-05-04T11:33:15.678Z,15.27
2023-05-04T11:35:44.246Z,14.89
2023-05-04T11:38:11.066Z,14.88
2023-05-04T11:40:41.144Z,15.23
2023-05-04T11:43:10.688Z,15.42
2023-05-04T11:45:40.133Z,14.96
2023-05-04T11:48:08.518Z,14.93
2023-05-04T11:50:35.605Z,15.08
2023-05-04T11:53:10.566Z,15.18
2023-05-04T11:55:38.194Z,15.23
2023-05-04T11:58:06.312Z,14.76
2023-05-04T12:00:38.758Z,14.57
2023-05-04T12:03:13.143Z,15.03
2023-05-04T12:05:50.889Z,15.00
2023-05-04T12:08:27.454Z,14.57
2023-05-04T12:11:11.182Z,14.15
2023-05-04T12:13:38.074Z,15.16
2023-05-04T12:16:12.679Z,14.51
2023-05-04T12:18:39.751Z,15.29
2023-05-04T12:21:19.863Z,14.84
2023-05-04T12:23:47.517Z,14.81
2023-05-04T12:26:16.264Z,14.98
2023-05-04T12:28:45.129Z,15.39
2023-05-04T12:31:11.827Z,15.96
2023-05-04T12:33:38.519Z,15.66
2023-05-04T12:36:06.188Z,15.03
2023-05-04T12:38:33.903Z,15.00
2023-05-04T12:41:04.425Z,15.67
2023-05-04T12:43:32.289Z,15.88
2023-05-04T12:45:59.777Z,16.17
2023-05-04T12:48:28.404Z,14.84
2023-05-04T12:50:55.113Z,15.21
2023-05-04T12:53:24.517Z,16.00
2023-05-04T12:55:51.360Z,15.42
2023-05-04T12:58:17.990Z,15.72
2023-05-04T13:00:45.972Z,14.27
2023-05-04T13:03:13.215Z,14.38
2023-05-04T13:05:40.313Z,14.47
2023-05-04T13:08:06.961Z,14.98
2023-05-04T13:10:33.641Z,15.96
2023-05-04T13:13:00.557Z,15.82
2023-05-04T13:15:28.044Z,15.64
2023-05-04T13:17:54.949Z,16.39
2023-05-04T13:20:22.711Z,17.11
2023-05-04T13:22:50.600Z,16.51
2023-05-04T13:25:17.306Z,16.84
2023-05-04T13:27:44.088Z,16.64
2023-05-04T13:30:11.108Z,16.59
2023-05-04T13:32:37.970Z,16.67
2023-05-04T13:35:05.065Z,16.21
2023-05-04T13:37:31.741Z,15.58
2023-05-04T13:39:59.620Z,15.23
2023-05-04T13:42:26.309Z,15.25
2023-05-04T13:44:53.054Z,14.94
2023-05-04T13:47:19.646Z,15.58
2023-05-04T13:49:46.538Z,15.70
2023-05-04T13:52:13.535Z,15.46
2023-05-04T13:54:40.288Z,15.73
2023-05-04T13:57:07.392Z,15.89
2023-05-04T13:59:34.289Z,15.78
2023-05-04T14:02:01.997Z,15.94
2023-05-04T14:04:28.759Z,15.61
2023-05-04T14:06:57.010Z,15.84
2023-05-04T14:09:23.922Z,15.70
2023-05-04T14:11:50.588Z,15.55
2023-05-04T14:14:17.385Z,16.04
2023-05-04T14:16:44.071Z,15.83
2023-05-04T14:19:10.754Z,15.92
2023-05-04T14:21:37.386Z,15.54
2023-05-04T14:24:04.521Z,15.46
2023-05-04T14:26:34.656Z,16.00
2023-05-04T14:29:01.939Z,15.66
2023-05-04T14:31:28.694Z,15.96
2023-05-04T14:33:57.035Z,16.32
2023-05-04T14:36:23.835Z,15.79
2023-05-04T14:38:50.648Z,16.22
2023-05-04T14:41:17.597Z,16.71
2023-05-04T14:43:44.304Z,16.25
2023-05-04T14:46:12.863Z,16.30
2023-05-04T14:48:39.593Z,16.31
2023-05-04T14:51:06.501Z,16.14
2023-05-04T14:53:37.164Z,16.35
2023-05-04T14:56:05.456Z,16.12
2023-05-04T14:58:32.112Z,16.51
2023-05-04T15:00:58.841Z,16.31
2023-05-04T15:03:26.012Z,16.15
2023-05-04T15:05:52.916Z,15.29
2023-05-04T15:08:19.556Z,15.30
2023-05-04T15:10:46.440Z,15.40
2023-05-04T15:13:15.800Z,15.78
2023-05-04T15:15:42.908Z,16.18
2023-05-04T15:18:10.217Z,14.65
2023-05-04T15:20:38.656Z,15.41
2023-05-04T15:23:10.652Z,15.29
2023-05-04T15:25:41.928Z,15.98
2023-05-04T15:28:11.056Z,16.14
2023-05-04T15:30:42.046Z,15.58
2023-05-04T15:33:09.198Z,15.46
2023-05-04T15:35:36.742Z,15.31
2023-05-04T15:38:03.606Z,15.17
2023-05-04T15:40:31.427Z,15.88
2023-05-04T15:42:58.186Z,15.84
2023-05-04T15:45:24.954Z,16.07
2023-05-04T15:47:53.544Z,15.80
2023-05-04T15:50:21.116Z,15.74
2023-05-04T15:52:47.783Z,16.28
2023-05-04T15:55:25.285Z,15.82
2023-05-04T15:57:52.909Z,15.95
2023-05-04T16:00:20.935Z,15.76
2023-05-04T16:02:47.805Z,16.23
2023-05-04T16:05:14.698Z,15.54
2023-05-04T16:07:41.584Z,15.71
2023-05-04T16:10:09.443Z,15.68
2023-05-04T16:12:36.513Z,15.62
2023-05-04T16:15:03.322Z,15.74
2023-05-04T16:17:35.073Z,15.58
2023-05-04T16:20:02.611Z,15.93
2023-05-04T16:22:29.460Z,15.47
2023-05-04T16:24:56.155Z,15.64
2023-05-04T16:27:28.814Z,16.03
2023-05-04T16:29:56.073Z,16.07
2023-05-04T16:32:22.809Z,16.24
2023-05-04T16:34:49.561Z,15.46
2023-05-04T16:37:17.428Z,15.56
2023-05-04T16:39:44.025Z,16.06
2023-05-04T16:42:10.645Z,15.84
2023-05-04T16:44:37.403Z,15.82
2023-05-04T16:47:04.116Z,15.42
2023-05-04T16:49:30.871Z,15.42
2023-05-04T16:51:57.552Z,14.88
2023-05-04T16:54:24.264Z,14.83
2023-05-04T16:56:51.127Z,14.82
2023-05-04T16:59:17.830Z,14.81
2023-05-04T17:01:46.127Z,15.34
2023-05-04T17:04:12.775Z,15.02
2023-05-04T17:06:39.553Z,14.80
2023-05-04T17:09:07.048Z,14.65
2023-05-04T17:11:34.471Z,15.38
2023-05-04T17:14:01.359Z,15.60
2023-05-04T17:16:28.164Z,14.95
2023-05-04T17:18:54.988Z,15.18
2023-05-04T17:21:21.645Z,15.07
2023-05-04T17:23:48.273Z,14.92
2023-05-04T17:26:14.865Z,14.95
2023-05-04T17:28:41.629Z,14.80
2023-05-04T17:31:11.531Z,14.49
2023-05-04T17:33:38.778Z,14.56
2023-05-04T17:36:07.593Z,14.45
2023-05-04T17:38:34.398Z,14.73
2023-05-04T17:41:01.055Z,14.18
2023-05-04T17:43:30.572Z,14.53
2023-05-04T17:45:57.218Z,14.48
2023-05-04T17:48:24.273Z,14.64
2023-05-04T17:50:51.482Z,14.33
2023-05-04T17:53:18.176Z,14.08
2023-05-04T17:55:44.786Z,14.18
2023-05-04T17:58:11.407Z,13.93
2023-05-04T18:00:38.066Z,14.41
2023-05-04T18:03:04.796Z,14.50
2023-05-04T18:05:32.153Z,14.68
2023-05-04T18:07:59.028Z,14.18
2023-05-04T18:10:25.837Z,14.46
2023-05-04T18:12:52.673Z,14.46
2023-05-04T18:15:19.514Z,14.63
2023-05-04T18:17:46.251Z,14.70
2023-05-04T18:20:13.300Z,14.04
2023-05-04T18:22:40.100Z,14.73
2023-05-04T18:25:07.343Z,14.36
2023-05-04T18:27:35.237Z,14.57
2023-05-04T18:30:04.414Z,15.05
2023-05-04T18:32:31.284Z,15.30
2023-05-04T18:34:58.075Z,15.48
2023-05-04T18:37:25.043Z,14.78
2023-05-04T18:39:51.667Z,14.91
2023-05-04T18:42:18.342Z,15.13
2023-05-04T18:44:45.017Z,14.83
2023-05-04T18:47:11.680Z,14.82
2023-05-04T18:49:38.389Z,14.74
2023-05-04T18:52:05.247Z,14.66
2023-05-04T18:54:32.577Z,14.03
2023-05-04T18:56:59.516Z,14.31
2023-05-04T18:59:26.149Z,14.23
2023-05-04T19:01:53.111Z,14.11
2023-05-04T19:04:19.844Z,14.30
2023-05-04T19:06:47.799Z,14.53
2023-05-04T19:09:14.935Z,14.38
2023-05-04T19:11:41.663Z,14.14
2023-05-04T19:14:08.304Z,14.57
2023-05-04T19:16:34.959Z,14.09
2023-05-04T19:19:02.356Z,14.28
2023-05-04T19:21:29.326Z,14.15
2023-05-04T19:23:55.905Z,14.32
2023-05-04T19:26:22.659Z,13.79
2023-05-04T19:28:49.317Z,14.09
2023-05-04T19:31:16.451Z,14.22
2023-05-04T19:33:48.385Z,14.33
2023-05-04T19:36:16.237Z,14.27
2023-05-04T19:38:42.877Z,14.29
2023-05-04T19:41:09.522Z,14.25
2023-05-04T19:43:36.218Z,14.28
2023-05-04T19:46:03.117Z,14.17
2023-05-04T19:48:29.746Z,13.98
2023-05-04T19:50:56.407Z,14.02
2023-05-04T19:53:23.020Z,14.05
2023-05-04T19:55:49.777Z,14.47
2023-05-04T19:58:16.462Z,14.35
2023-05-04T20:00:43.182Z,14.21
2023-05-04T20:03:10.515Z,14.29
2023-05-04T20:05:38.528Z,14.57
2023-05-04T20:08:05.409Z,14.32
2023-05-04T20:10:32.383Z,14.37
2023-05-04T20:12:59.085Z,14.33
2023-05-04T20:15:26.015Z,14.43
2023-05-04T20:17:52.771Z,13.82
2023-05-04T20:20:21.502Z,13.80
2023-05-04T20:22:52.187Z,14.32
2023-05-04T20:25:19.914Z,14.35
2023-05-04T20:27:48.689Z,14.47
2023-05-04T20:30:15.738Z,14.11
2023-05-04T20:32:44.131Z,14.16
2023-05-04T20:35:11.037Z,14.31
2023-05-04T20:37:37.659Z,14.31
2023-05-04T20:40:04.978Z,14.20
2023-05-04T20:42:31.907Z,14.11
2023-05-04T20:44:58.524Z,14.16
2023-05-04T20:47:25.150Z,14.38
2023-05-04T20:49:52.691Z,14.14
2023-05-04T20:52:19.460Z,14.46
2023-05-04T20:54:46.085Z,14.33
2023-05-04T20:57:12.688Z,13.34
2023-05-04T20:59:39.276Z,13.28
2023-05-04T21:02:06.615Z,13.84
2023-05-04T21:04:33.206Z,14.05
2023-05-04T21:06:59.896Z,14.10
2023-05-04T21:09:26.725Z,14.28
2023-05-04T21:11:53.300Z,14.58
2023-05-04T21:14:19.982Z,14.45
2023-05-04T21:16:46.556Z,14.23
2023-05-04T21:19:13.277Z,14.12
2023-05-04T21:21:41.531Z,13.51
2023-05-04T21:24:17.524Z,13.44
2023-05-04T21:26:45.608Z,13.68
2023-05-04T21:29:15.439Z,14.11
2023-05-04T21:31:42.288Z,14.45
2023-05-04T21:34:08.963Z,14.65
2023-05-04T21:36:35.918Z,14.47
2023-05-04T21:39:03.325Z,14.45
2023-05-04T21:41:29.894Z,14.25
2023-05-04T21:43:56.756Z,13.93
2023-05-04T21:46:23.457Z,14.26
2023-05-04T21:48:51.808Z,14.28
2023-05-04T21:51:20.664Z,14.43
2023-05-04T21:53:47.933Z,14.55
2023-05-04T21:56:15.117Z,14.46
2023-05-04T21:58:42.195Z,14.60
2023-05-04T22:01:09.717Z,14.52
2023-05-04T22:03:36.744Z,14.37
2023-05-04T22:06:03.750Z,14.36
2023-05-04T22:08:30.570Z,14.39
2023-05-04T22:10:58.596Z,14.45
2023-05-04T22:13:26.155Z,14.54
2023-05-04T22:15:53.542Z,14.44
2023-05-04T22:18:20.892Z,14.62
2023-05-04T22:20:47.619Z,14.54
2023-05-04T22:23:14.329Z,14.45
2023-05-04T22:25:41.337Z,14.61
2023-05-04T22:28:08.022Z,14.71
2023-05-04T22:30:34.713Z,14.80
2023-05-04T22:33:01.610Z,14.46
2023-05-04T22:35:28.594Z,14.14
2023-05-04T22:37:55.364Z,14.06
2023-05-04T22:40:22.540Z,14.27
2023-05-04T22:42:49.371Z,14.35
2023-05-04T22:45:17.620Z,14.64
2023-05-04T22:47:44.708Z,14.63
2023-05-04T22:50:11.445Z,14.61
2023-05-04T22:52:39.136Z,14.66
2023-05-04T22:55:06.553Z,14.61
2023-05-04T22:57:33.195Z,14.45
2023-05-04T22:59:59.825Z,14.32
2023-05-04T23:02:26.637Z,14.23
2023-05-04T23:04:53.432Z,14.10
2023-05-04T23:07:20.169Z,14.12
2023-05-04T23:09:47.452Z,14.34
2023-05-04T23:12:15.175Z,14.43
2023-05-04T23:14:42.110Z,14.18
2023-05-04T23:17:09.462Z,14.26
2023-05-04T23:19:36.417Z,14.46
2023-05-04T23:22:03.082Z,14.27
2023-05-04T23:24:29.804Z,14.08
2023-05-04T23:26:56.374Z,13.86
2023-05-04T23:29:23.088Z,13.80
2023-05-04T23:31:49.781Z,13.77
2023-05-04T23:34:16.471Z,13.40
2023-05-04T23:36:43.054Z,13.78
2023-05-04T23:39:10.187Z,14.20
2023-05-04T23:41:36.733Z,14.25
2023-05-04T23:44:03.942Z,14.34
2023-05-04T23:46:30.724Z,14.42
2023-05-04T23:48:57.340Z,14.19
2023-05-04T23:51:23.893Z,14.30
2023-05-04T23:53:50.613Z,13.99
2023-05-04T23:56:17.583Z,14.06
2023-05-04T23:58:44.239Z,14.42
